createdAt,value
2023-01-23T00:01:25.047Z,101419.00
2023-01-23T00:03:51.562Z,101414.97
2023-01-23T00:06:18.232Z,101410.28
2023-01-23T00:08:45.060Z,101396.72
2023-01-23T00:11:20.586Z,101403.59
2023-01-23T00:13:47.184Z,101401.50
2023-01-23T00:16:17.705Z,101380.59
2023-01-23T00:18:44.316Z,101397.38
2023-01-23T00:21:14.521Z,101385.19
2023-01-23T00:23:44.559Z,101381.66
2023-01-23T00:26:12.929Z,101383.81
2023-01-23T00:28:39.314Z,101389.66
2023-01-23T00:31:06.355Z,101393.13
2023-01-23T00:33:32.846Z,101384.25
2023-01-23T00:35:59.390Z,101395.31
2023-01-23T00:38:25.832Z,101397.75
2023-01-23T00:40:52.278Z,101405.16
2023-01-23T00:43:18.681Z,101402.06
2023-01-23T00:45:45.075Z,101398.53
2023-01-23T00:48:11.525Z,101392.13
2023-01-23T00:50:37.939Z,101386.37
2023-01-23T00:53:04.454Z,101392.34
2023-01-23T00:55:30.859Z,101400.47
2023-01-23T00:57:57.321Z,101400.84
2023-01-23T01:00:23.722Z,101404.38
2023-01-23T01:02:50.183Z,101400.25
2023-01-23T01:05:18.192Z,101402.28
2023-01-23T01:07:44.991Z,101395.72
2023-01-23T01:10:11.760Z,101389.25
2023-01-23T01:12:38.421Z,101397.16
2023-01-23T01:15:05.282Z,101392.97
2023-01-23T01:17:31.696Z,101398.09
2023-01-23T01:19:58.103Z,101398.31
2023-01-23T01:22:24.620Z,101398.88
2023-01-23T01:24:51.197Z,101391.19
2023-01-23T01:27:17.631Z,101381.72
2023-01-23T01:29:44.050Z,101386.41
2023-01-23T01:32:10.502Z,101377.72
2023-01-23T01:34:36.871Z,101371.94
2023-01-23T01:37:03.295Z,101379.22
2023-01-23T01:39:32.262Z,101378.41
2023-01-23T01:41:58.679Z,101373.59
2023-01-23T01:44:25.091Z,101369.75
2023-01-23T01:46:51.601Z,101368.56
2023-01-23T01:49:21.066Z,101366.75
2023-01-23T01:51:58.691Z,101384.16
2023-01-23T01:54:37.327Z,101381.09
2023-01-23T01:57:22.607Z,101375.03
2023-01-23T01:59:51.121Z,101368.34
2023-01-23T02:02:27.890Z,101376.69
2023-01-23T02:04:55.310Z,101379.31
2023-01-23T02:07:22.981Z,101383.91
2023-01-23T02:09:49.380Z,101385.94
2023-01-23T02:12:15.923Z,101381.88
2023-01-23T02:14:42.350Z,101370.91
2023-01-23T02:17:08.726Z,101379.06
2023-01-23T02:19:40.884Z,101371.53
2023-01-23T02:22:17.368Z,101366.03
2023-01-23T02:24:45.401Z,101360.97
2023-01-23T02:27:11.864Z,101355.94
2023-01-23T02:29:42.212Z,101358.53
2023-01-23T02:32:08.860Z,101369.75
2023-01-23T02:34:35.519Z,101362.84
2023-01-23T02:37:01.949Z,101367.25
2023-01-23T02:39:28.479Z,101363.88
2023-01-23T02:41:56.086Z,101359.31
2023-01-23T02:44:29.555Z,101361.72
2023-01-23T02:46:56.642Z,101354.06
2023-01-23T02:49:23.143Z,101362.91
2023-01-23T02:51:50.129Z,101359.81
2023-01-23T02:54:16.976Z,101358.66
2023-01-23T02:56:43.366Z,101351.47
2023-01-23T02:59:30.685Z,101345.84
2023-01-23T03:01:57.682Z,101345.94
2023-01-23T03:04:24.259Z,101341.59
2023-01-23T03:06:50.654Z,101341.22
2023-01-23T03:09:17.136Z,101334.91
2023-01-23T03:11:44.170Z,101332.25
2023-01-23T03:14:13.194Z,101331.34
2023-01-23T03:16:40.870Z,101324.31
2023-01-23T03:19:08.973Z,101327.78
2023-01-23T03:21:36.664Z,101333.38
2023-01-23T03:24:06.442Z,101337.69
2023-01-23T03:26:32.997Z,101335.00
2023-01-23T03:29:17.815Z,101340.12
2023-01-23T03:31:44.477Z,101342.72
2023-01-23T03:34:10.988Z,101336.94
2023-01-23T03:36:37.577Z,101336.72
2023-01-23T03:39:23.647Z,101331.00
2023-01-23T03:41:50.127Z,101322.72
2023-01-23T03:44:18.910Z,101318.75
2023-01-23T03:46:46.082Z,101320.22
2023-01-23T03:49:12.460Z,101319.84
2023-01-23T03:51:38.879Z,101326.25
2023-01-23T03:54:05.267Z,101320.50
2023-01-23T03:56:31.686Z,101325.00
2023-01-23T03:58:59.004Z,101326.78
2023-01-23T04:01:25.426Z,101319.00
2023-01-23T04:03:51.860Z,101316.13
2023-01-23T04:06:18.576Z,101325.84
2023-01-23T04:08:44.997Z,101315.56
2023-01-23T04:11:11.563Z,101317.50
2023-01-23T04:13:38.109Z,101312.44
2023-01-23T04:16:05.079Z,101313.44
2023-01-23T04:18:31.494Z,101316.00
2023-01-23T04:20:58.057Z,101310.75
2023-01-23T04:23:24.573Z,101311.87
2023-01-23T04:25:51.134Z,101307.16
2023-01-23T04:28:17.552Z,101317.59
2023-01-23T04:30:44.009Z,101321.59
2023-01-23T04:33:10.513Z,101317.63
2023-01-23T04:35:37.027Z,101314.66
2023-01-23T04:38:03.489Z,101312.47
2023-01-23T04:40:30.068Z,101314.56
2023-01-23T04:42:56.542Z,101306.50
2023-01-23T04:45:22.961Z,101311.28
2023-01-23T04:47:49.359Z,101312.38
2023-01-23T04:50:16.538Z,101319.91
2023-01-23T04:52:43.033Z,101316.91
2023-01-23T04:55:09.616Z,101316.44
2023-01-23T04:57:36.081Z,101325.78
2023-01-23T05:00:02.471Z,101322.56
2023-01-23T05:02:29.040Z,101329.47
2023-01-23T05:04:55.493Z,101325.50
2023-01-23T05:07:21.937Z,101327.09
2023-01-23T05:09:48.347Z,101338.63
2023-01-23T05:12:14.813Z,101348.06
2023-01-23T05:14:42.030Z,101345.06
2023-01-23T05:17:08.445Z,101337.75
2023-01-23T05:19:34.816Z,101344.94
2023-01-23T05:22:01.199Z,101346.47
2023-01-23T05:24:28.321Z,101344.63
2023-01-23T05:26:54.778Z,101353.34
2023-01-23T05:29:21.262Z,101348.81
2023-01-23T05:31:47.739Z,101347.88
2023-01-23T05:34:14.184Z,101349.63
2023-01-23T05:36:40.611Z,101347.81
2023-01-23T05:39:07.005Z,101339.72
2023-01-23T05:41:33.472Z,101344.12
2023-01-23T05:43:59.892Z,101348.66
2023-01-23T05:46:26.364Z,101341.44
2023-01-23T05:48:52.988Z,101343.81
2023-01-23T05:51:19.595Z,101344.53
2023-01-23T05:53:46.044Z,101348.22
2023-01-23T05:56:12.607Z,101358.97
2023-01-23T05:58:38.996Z,101354.56
2023-01-23T06:01:05.452Z,101355.31
2023-01-23T06:03:31.947Z,101366.06
2023-01-23T06:06:00.251Z,101375.66
2023-01-23T06:08:26.694Z,101375.66
2023-01-23T06:10:53.255Z,101375.78
2023-01-23T06:13:19.738Z,101387.28
2023-01-23T06:15:46.199Z,101386.41
2023-01-23T06:18:12.746Z,101395.16
2023-01-23T06:20:39.174Z,101392.47
2023-01-23T06:23:05.744Z,101402.38
2023-01-23T06:25:32.215Z,101398.81
2023-01-23T06:27:58.614Z,101412.03
2023-01-23T06:30:25.025Z,101404.06
2023-01-23T06:32:51.456Z,101413.97
2023-01-23T06:35:18.367Z,101417.22
2023-01-23T06:37:45.075Z,101418.41
2023-01-23T06:40:14.548Z,101418.50
2023-01-23T06:42:41.581Z,101425.59
2023-01-23T06:45:08.686Z,101425.50
2023-01-23T06:47:35.226Z,101422.16
2023-01-23T06:50:02.539Z,101431.25
2023-01-23T06:52:29.105Z,101423.59
2023-01-23T06:54:55.524Z,101417.78
2023-01-23T06:57:21.965Z,101418.91
2023-01-23T06:59:48.425Z,101418.50
2023-01-23T07:02:14.856Z,101421.09
2023-01-23T07:04:41.293Z,101426.13
2023-01-23T07:07:07.714Z,101427.97
2023-01-23T07:09:34.378Z,101426.81
2023-01-23T07:12:00.814Z,101431.22
2023-01-23T07:14:28.613Z,101438.28
2023-01-23T07:16:55.688Z,101436.22
2023-01-23T07:19:22.110Z,101447.78
2023-01-23T07:21:49.393Z,101448.41
2023-01-23T07:24:15.835Z,101459.28
2023-01-23T07:26:42.233Z,101461.34
2023-01-23T07:29:11.600Z,101464.37
2023-01-23T07:31:38.291Z,101467.94
2023-01-23T07:34:04.711Z,101467.47
2023-01-23T07:36:31.152Z,101460.84
2023-01-23T07:38:59.082Z,101469.75
2023-01-23T07:41:28.275Z,101466.84
2023-01-23T07:43:56.757Z,101462.44
2023-01-23T07:46:30.137Z,101465.53
2023-01-23T07:48:56.618Z,101457.78
2023-01-23T07:51:23.294Z,101464.88
2023-01-23T07:53:49.731Z,101462.56
2023-01-23T07:56:16.239Z,101464.94
2023-01-23T07:58:42.672Z,101461.41
2023-01-23T08:01:11.894Z,101466.78
2023-01-23T08:03:38.420Z,101471.47
2023-01-23T08:06:05.035Z,101474.91
2023-01-23T08:08:31.449Z,101475.47
2023-01-23T08:10:57.856Z,101466.25
2023-01-23T08:13:24.350Z,101474.25
2023-01-23T08:15:53.381Z,101467.34
2023-01-23T08:18:19.932Z,101474.84
2023-01-23T08:20:52.172Z,101473.75
2023-01-23T08:23:18.642Z,101470.09
2023-01-23T08:25:45.464Z,101473.66
2023-01-23T08:28:12.022Z,101471.06
2023-01-23T08:30:38.689Z,101471.63
2023-01-23T08:33:05.326Z,101472.72
2023-01-23T08:35:31.842Z,101461.97
2023-01-23T08:37:58.414Z,101471.94
2023-01-23T08:40:25.010Z,101480.47
2023-01-23T08:42:57.234Z,101481.41
2023-01-23T08:45:23.906Z,101478.72
2023-01-23T08:47:50.944Z,101476.94
2023-01-23T08:50:18.108Z,101486.03
2023-01-23T08:52:44.684Z,101489.69
2023-01-23T08:55:12.877Z,101485.94
2023-01-23T08:57:39.296Z,101480.25
2023-01-23T09:00:05.979Z,101483.25
2023-01-23T09:02:32.520Z,101478.66
2023-01-23T09:04:59.072Z,101473.91
2023-01-23T09:07:25.507Z,101476.81
2023-01-23T09:09:51.998Z,101480.75
2023-01-23T09:12:18.964Z,101483.63
2023-01-23T09:14:45.401Z,101477.69
2023-01-23T09:17:11.819Z,101479.41
2023-01-23T09:19:38.261Z,101480.19
2023-01-23T09:22:04.756Z,101483.91
2023-01-23T09:24:31.185Z,101491.00
2023-01-23T09:26:57.807Z,101485.00
2023-01-23T09:29:24.267Z,101484.78
2023-01-23T09:31:50.840Z,101488.44
2023-01-23T09:34:17.508Z,101486.22
2023-01-23T09:36:44.033Z,101479.12
2023-01-23T09:39:10.662Z,101479.50
2023-01-23T09:41:41.255Z,101477.94
2023-01-23T09:44:12.144Z,101479.56
2023-01-23T09:46:49.246Z,101477.87
2023-01-23T09:49:21.857Z,101478.53
2023-01-23T09:51:48.341Z,101481.53
2023-01-23T09:54:18.269Z,101477.37
2023-01-23T09:56:45.160Z,101475.78
2023-01-23T09:59:11.521Z,101474.19
2023-01-23T10:01:37.942Z,101476.41
2023-01-23T10:04:04.427Z,101467.69
2023-01-23T10:06:43.860Z,101472.00
2023-01-23T10:09:13.354Z,101479.34
2023-01-23T10:11:42.445Z,101477.44
2023-01-23T10:14:25.431Z,101465.47
2023-01-23T10:16:58.287Z,101476.34
2023-01-23T10:19:33.693Z,101472.97
2023-01-23T10:22:00.317Z,101479.53
2023-01-23T10:24:47.847Z,101478.88
2023-01-23T10:27:33.667Z,101466.19
2023-01-23T10:30:01.113Z,101474.25
2023-01-23T10:32:28.542Z,101471.69
2023-01-23T10:35:05.732Z,101480.16
2023-01-23T10:37:32.132Z,101471.56
2023-01-23T10:39:59.997Z,101463.81
2023-01-23T10:42:26.733Z,101463.72
2023-01-23T10:44:53.218Z,101464.69
2023-01-23T10:47:22.831Z,101464.88
2023-01-23T10:49:51.473Z,101463.25
2023-01-23T10:57:45.420Z,101455.03
2023-01-23T11:00:22.957Z,101451.31
2023-01-23T11:02:49.747Z,101441.94
2023-01-23T11:05:43.517Z,101444.81
2023-01-23T11:08:26.732Z,101447.66
2023-01-23T11:10:53.511Z,101442.59
2023-01-23T11:13:27.428Z,101446.28
2023-01-23T11:15:55.396Z,101445.31
2023-01-23T11:18:32.426Z,101448.22
2023-01-23T11:20:58.837Z,101439.34
2023-01-23T11:23:25.533Z,101437.25
2023-01-23T11:25:52.673Z,101432.25
2023-01-23T11:28:46.977Z,101436.63
2023-01-23T11:31:15.695Z,101437.31
2023-01-23T11:33:52.077Z,101422.84
2023-01-23T11:36:18.541Z,101429.50
2023-01-23T11:38:53.256Z,101423.94
2023-01-23T11:41:19.810Z,101427.28
2023-01-23T11:43:46.231Z,101421.31
2023-01-23T11:46:18.920Z,101422.06
2023-01-23T11:48:48.215Z,101418.62
2023-01-23T11:51:17.418Z,101407.88
2023-01-23T11:53:44.482Z,101415.88
2023-01-23T11:56:23.260Z,101413.03
2023-01-23T11:59:04.833Z,101416.63
2023-01-23T12:01:34.519Z,101409.34
2023-01-23T12:04:01.005Z,101415.78
2023-01-23T12:06:35.483Z,101417.78
2023-01-23T12:09:04.717Z,101421.16
2023-01-23T12:11:33.978Z,101414.56
2023-01-23T12:14:09.552Z,101433.13
2023-01-23T12:16:55.028Z,101422.97
2023-01-23T12:19:25.210Z,101428.94
2023-01-23T12:21:51.767Z,101423.06
2023-01-23T12:24:28.169Z,101423.25
2023-01-23T12:26:57.504Z,101423.75
2023-01-23T12:29:27.054Z,101419.50
2023-01-23T12:32:02.902Z,101407.13
2023-01-23T12:34:29.574Z,101405.63
2023-01-23T12:37:08.564Z,101415.12
2023-01-23T12:39:41.758Z,101417.31
2023-01-23T12:42:13.378Z,101415.81
2023-01-23T12:44:44.428Z,101413.31
2023-01-23T12:47:11.048Z,101407.81
2023-01-23T12:49:44.257Z,101411.66
2023-01-23T12:52:13.914Z,101413.47
2023-01-23T12:54:45.063Z,101418.19
2023-01-23T12:57:11.540Z,101419.81
2023-01-23T12:59:37.956Z,101419.06
2023-01-23T13:02:30.434Z,101418.84
2023-01-23T13:05:06.858Z,101417.22
2023-01-23T13:07:35.492Z,101417.31
2023-01-23T13:10:11.014Z,101416.66
2023-01-23T13:12:37.765Z,101417.59
2023-01-23T13:15:17.393Z,101419.47
2023-01-23T13:17:57.527Z,101419.66
2023-01-23T13:20:43.674Z,101425.81
2023-01-23T13:23:29.107Z,101420.53
2023-01-23T13:26:11.938Z,101424.09
2023-01-23T13:28:45.597Z,101418.06
2023-01-23T13:31:31.242Z,101421.69
2023-01-23T13:34:10.269Z,101422.72
2023-01-23T13:36:41.262Z,101429.25
2023-01-23T13:39:10.688Z,101433.00
2023-01-23T13:41:37.311Z,101432.19
2023-01-23T13:44:04.437Z,101438.53
2023-01-23T14:21:41.052Z,101453.59
2023-01-23T14:24:18.155Z,101452.66
2023-01-23T14:26:48.065Z,101456.22
2023-01-23T14:29:21.680Z,101448.22
2023-01-23T14:31:48.652Z,101459.00
2023-01-23T14:34:18.688Z,101456.16
2023-01-23T14:36:46.041Z,101457.75
2023-01-23T14:39:17.218Z,101450.56
2023-01-23T14:41:44.919Z,101449.47
2023-01-23T14:44:22.562Z,101459.97
2023-01-23T14:46:55.748Z,101457.00
2023-01-23T14:49:24.191Z,101460.16
2023-01-23T14:51:54.981Z,101458.72
2023-01-23T14:54:23.312Z,101460.59
2023-01-23T14:56:50.121Z,101464.09
2023-01-23T14:59:19.444Z,101456.81
2023-01-23T15:01:55.712Z,101466.91
2023-01-23T15:04:23.479Z,101464.31
2023-01-23T15:06:50.759Z,101465.44
2023-01-23T15:09:17.181Z,101465.53
2023-01-23T15:11:44.039Z,101468.38
2023-01-23T15:14:24.293Z,101468.50
2023-01-23T15:16:52.256Z,101474.72
2023-01-23T15:19:22.403Z,101468.50
2023-01-23T15:21:48.857Z,101471.88
2023-01-23T15:24:15.226Z,101479.09
2023-01-23T15:26:42.406Z,101467.53
2023-01-23T15:29:08.811Z,101474.13
2023-01-23T15:31:35.500Z,101467.03
2023-01-23T15:34:14.546Z,101472.56
2023-01-23T15:36:47.183Z,101475.94
2023-01-23T15:39:18.191Z,101485.94
2023-01-23T15:41:47.872Z,101483.28
2023-01-23T15:44:17.450Z,101489.50
2023-01-23T15:46:43.929Z,101487.56
2023-01-23T15:49:23.597Z,101489.34
2023-01-23T15:51:51.139Z,101492.06
2023-01-23T15:54:21.954Z,101484.03
2023-01-23T15:56:56.994Z,101496.50
2023-01-23T15:59:33.092Z,101500.91
2023-01-23T16:01:59.512Z,101495.56
2023-01-23T16:04:25.961Z,101505.31
2023-01-23T16:06:52.358Z,101505.31
2023-01-23T16:09:31.736Z,101497.28
2023-01-23T16:12:01.187Z,101499.00
2023-01-23T16:14:27.643Z,101507.81
2023-01-23T16:16:55.306Z,101509.56
2023-01-23T16:19:23.010Z,101512.13
2023-01-23T16:22:03.082Z,101509.56
2023-01-23T16:24:30.531Z,101518.53
2023-01-23T16:27:01.245Z,101510.41
2023-01-23T16:29:28.686Z,101512.13
2023-01-23T16:31:55.707Z,101511.28
2023-01-23T16:34:22.211Z,101517.59
2023-01-23T16:36:52.856Z,101514.75
2023-01-23T16:39:20.259Z,101510.41
2023-01-23T16:41:46.786Z,101520.00
2023-01-23T16:44:19.387Z,101520.88
2023-01-23T16:46:46.012Z,101520.69
2023-01-23T16:49:12.865Z,101518.94
2023-01-23T16:51:39.985Z,101521.56
2023-01-23T16:54:18.384Z,101523.91
2023-01-23T16:56:45.446Z,101525.09
2023-01-23T16:59:15.217Z,101528.97
2023-01-23T17:01:43.679Z,101541.00
2023-01-23T17:04:10.240Z,101546.88
2023-01-23T17:06:36.709Z,101559.06
2023-01-23T17:09:03.156Z,101543.56
2023-01-23T17:11:30.622Z,101547.09
2023-01-23T17:13:58.229Z,101552.19
2023-01-23T17:16:27.671Z,101550.38
2023-01-23T17:18:55.108Z,101550.94
2023-01-23T17:21:21.695Z,101550.94
2023-01-23T17:23:48.111Z,101558.06
2023-01-23T17:26:17.756Z,101558.75
2023-01-23T17:28:44.143Z,101561.44
2023-01-23T17:31:21.136Z,101558.00
2023-01-23T17:33:47.709Z,101562.81
2023-01-23T17:36:14.124Z,101561.16
2023-01-23T17:38:41.943Z,101566.25
2023-01-23T17:41:15.349Z,101565.59
2023-01-23T17:43:44.343Z,101555.03
2023-01-23T17:46:20.232Z,101560.62
2023-01-23T17:48:46.734Z,101571.19
2023-01-23T17:51:19.574Z,101567.59
2023-01-23T17:53:46.223Z,101577.34
2023-01-23T17:56:12.731Z,101586.47
2023-01-23T17:58:39.175Z,101580.34
2023-01-23T18:01:07.007Z,101574.19
2023-01-23T18:03:33.619Z,101570.38
2023-01-23T18:06:00.088Z,101577.00
2023-01-23T18:08:26.598Z,101572.13
2023-01-23T18:10:53.455Z,101566.44
2023-01-23T18:13:32.171Z,101575.84
2023-01-23T18:16:06.778Z,101575.06
2023-01-23T18:18:34.145Z,101573.44
2023-01-23T18:21:01.069Z,101574.91
2023-01-23T18:23:27.838Z,101581.44
2023-01-23T18:26:20.792Z,101572.34
2023-01-23T18:28:53.046Z,101574.81
2023-01-23T18:31:22.968Z,101567.75
2023-01-23T18:33:49.627Z,101580.31
2023-01-23T18:36:21.815Z,101573.22
2023-01-23T18:38:51.231Z,101574.25
2023-01-23T18:41:21.785Z,101569.84
2023-01-23T18:44:01.904Z,101569.94
2023-01-23T18:46:28.419Z,101568.97
2023-01-23T18:48:55.344Z,101573.75
2023-01-23T18:51:29.677Z,101573.56
2023-01-23T18:54:04.609Z,101566.69
2023-01-23T18:56:46.358Z,101571.09
2023-01-23T18:59:21.067Z,101574.72
2023-01-23T19:01:59.888Z,101576.56
2023-01-23T19:04:30.879Z,101579.13
2023-01-23T19:06:57.937Z,101588.22
2023-01-23T19:09:24.348Z,101581.81
2023-01-23T19:11:54.231Z,101585.53
2023-01-23T19:14:23.875Z,101589.87
2023-01-23T19:17:01.475Z,101597.91
2023-01-23T19:19:37.033Z,101589.87
2023-01-23T19:22:05.533Z,101598.69
2023-01-23T19:24:31.993Z,101594.38
2023-01-23T19:26:58.635Z,101601.28
2023-01-23T19:29:25.129Z,101604.03
2023-01-23T19:32:04.159Z,101602.22
2023-01-23T19:34:31.540Z,101606.66
2023-01-23T19:36:57.932Z,101610.22
2023-01-23T19:39:24.367Z,101605.31
2023-01-23T19:41:50.829Z,101598.53
2023-01-23T19:44:17.783Z,101607.00
2023-01-23T19:46:44.242Z,101608.22
2023-01-23T19:49:10.876Z,101613.28
2023-01-23T19:51:37.316Z,101607.97
2023-01-23T19:54:04.069Z,101614.03
2023-01-23T19:56:30.766Z,101610.22
2023-01-23T19:58:57.403Z,101610.09
2023-01-23T20:01:38.584Z,101614.13
2023-01-23T20:04:05.196Z,101619.75
2023-01-23T20:06:33.156Z,101615.66
2023-01-23T20:08:59.961Z,101624.72
2023-01-23T20:11:26.377Z,101629.59
2023-01-23T20:13:52.768Z,101629.09
2023-01-23T20:16:24.790Z,101624.91
2023-01-23T20:18:52.681Z,101636.03
2023-01-23T20:21:20.279Z,101636.53
2023-01-23T20:23:46.986Z,101647.91
2023-01-23T20:26:13.487Z,101647.56
2023-01-23T20:28:39.908Z,101645.34
2023-01-23T20:31:10.278Z,101642.28
2023-01-23T20:33:36.897Z,101653.13
2023-01-23T20:36:03.843Z,101663.19
2023-01-23T20:38:30.267Z,101659.94
2023-01-23T20:41:02.132Z,101660.91
2023-01-23T20:43:28.510Z,101655.56
2023-01-23T20:45:55.016Z,101663.34
2023-01-23T20:48:21.490Z,101655.97
2023-01-23T20:50:54.587Z,101662.00
2023-01-23T20:53:30.157Z,101669.47
2023-01-23T20:55:57.437Z,101678.78
2023-01-23T20:58:42.528Z,101671.38
2023-01-23T21:01:09.237Z,101673.53
2023-01-23T21:03:35.789Z,101675.00
2023-01-23T21:06:02.189Z,101686.00
2023-01-23T21:08:28.622Z,101689.91
2023-01-23T21:10:55.058Z,101692.91
2023-01-23T21:13:22.520Z,101694.97
2023-01-23T21:15:58.694Z,101692.56
2023-01-23T21:18:25.202Z,101699.09
2023-01-23T21:20:51.822Z,101703.81
2023-01-23T21:23:20.888Z,101708.47
2023-01-23T21:25:48.638Z,101698.09
2023-01-23T21:28:15.076Z,101709.84
2023-01-23T21:30:41.541Z,101711.84
2023-01-23T21:33:08.216Z,101705.88
2023-01-23T21:35:34.755Z,101718.44
2023-01-23T21:38:02.044Z,101721.22
2023-01-23T21:40:28.514Z,101723.12
2023-01-23T21:42:54.915Z,101726.00
2023-01-23T21:45:21.598Z,101723.47
2023-01-23T21:47:48.371Z,101731.53
2023-01-23T21:50:17.678Z,101734.31
2023-01-23T21:52:44.352Z,101725.59
2023-01-23T21:55:10.844Z,101732.81
2023-01-23T21:57:37.257Z,101732.00
2023-01-23T22:00:22.529Z,101730.38
2023-01-23T22:02:49.026Z,101723.47
2023-01-23T22:05:15.511Z,101728.91
2023-01-23T22:07:41.918Z,101736.06
2023-01-23T22:10:08.567Z,101725.56
2023-01-23T22:12:34.997Z,101731.78
2023-01-23T22:15:01.393Z,101730.09
2023-01-23T22:17:27.845Z,101739.06
2023-01-23T22:19:54.249Z,101737.38
2023-01-23T22:22:20.907Z,101739.25
2023-01-23T22:24:47.316Z,101741.09
2023-01-23T22:27:13.747Z,101732.38
2023-01-23T22:29:40.352Z,101747.50
2023-01-23T22:32:06.882Z,101745.81
2023-01-23T22:34:33.373Z,101745.91
2023-01-23T22:36:59.776Z,101748.56
2023-01-23T22:39:26.164Z,101751.25
2023-01-23T22:41:52.626Z,101760.16
2023-01-23T22:44:19.222Z,101762.91
2023-01-23T22:46:45.724Z,101775.25
2023-01-23T22:49:12.186Z,101768.28
2023-01-23T22:51:38.629Z,101774.47
2023-01-23T22:54:06.093Z,101769.25
2023-01-23T22:56:32.557Z,101773.75
2023-01-23T22:59:01.286Z,101768.50
2023-01-23T23:01:27.813Z,101778.28
2023-01-23T23:03:55.841Z,101786.25
2023-01-23T23:06:22.432Z,101787.16
2023-01-23T23:08:48.846Z,101802.25
2023-01-23T23:11:25.506Z,101794.38
2023-01-23T23:13:51.977Z,101789.06
2023-01-23T23:16:19.557Z,101786.47
2023-01-23T23:18:46.239Z,101791.81
2023-01-23T23:21:13.057Z,101798.91
2023-01-23T23:23:39.518Z,101786.59
2023-01-23T23:26:06.337Z,101786.63
2023-01-23T23:28:32.841Z,101794.62
2023-01-23T23:30:59.302Z,101796.44
2023-01-23T23:33:25.793Z,101799.06
2023-01-23T23:35:52.217Z,101792.09
2023-01-23T23:38:18.783Z,101789.44
2023-01-23T23:40:53.200Z,101790.34
2023-01-23T23:43:22.017Z,101792.16
2023-01-23T23:45:54.878Z,101791.34
2023-01-23T23:48:21.577Z,101801.09
2023-01-23T23:50:47.978Z,101794.94
2023-01-23T23:53:14.592Z,101789.72
2023-01-23T23:55:40.970Z,101792.34
2023-01-23T23:58:07.385Z,101790.63
